createdAt,value
2024-05-09T00:00:54.968Z,102714.80
2024-05-09T00:04:24.133Z,102713.63
2024-05-09T00:07:38.890Z,102710.00
2024-05-09T00:11:00.665Z,102708.88
2024-05-09T00:14:29.628Z,102702.04
2024-05-09T00:17:58.779Z,102702.48
2024-05-09T00:21:27.736Z,102703.77
2024-05-09T00:24:57.466Z,102700.89
2024-05-09T00:28:26.563Z,102701.61
2024-05-09T00:31:38.495Z,102700.08
2024-05-09T00:35:06.091Z,102696.69
2024-05-09T00:38:35.419Z,102694.14
2024-05-09T00:42:04.279Z,102692.89
2024-05-09T00:45:31.918Z,102696.67
2024-05-09T00:49:00.896Z,102690.35
2024-05-09T00:52:29.921Z,102688.01
2024-05-09T00:55:48.909Z,102689.39
2024-05-09T00:59:21.322Z,102686.02
2024-05-09T01:02:43.363Z,102685.44
2024-05-09T01:06:13.507Z,102686.37
2024-05-09T01:09:42.184Z,102683.28
2024-05-09T01:13:11.377Z,102677.63
2024-05-09T01:16:40.496Z,102681.77
2024-05-09T01:20:12.895Z,102679.41
2024-05-09T01:23:48.203Z,102677.39
2024-05-09T01:27:17.301Z,102676.29
2024-05-09T01:30:46.200Z,102677.09
2024-05-09T01:34:15.204Z,102673.00
2024-05-09T01:37:45.389Z,102674.98
2024-05-09T01:41:06.942Z,102667.44
2024-05-09T01:44:28.636Z,102666.31
2024-05-09T01:47:57.640Z,102669.23
2024-05-09T01:51:26.542Z,102667.61
2024-05-09T01:54:49.179Z,102669.96
2024-05-09T01:58:19.916Z,102665.50
2024-05-09T02:01:56.682Z,102665.70
2024-05-09T02:05:30.298Z,102668.86
2024-05-09T02:08:59.123Z,102669.10
2024-05-09T02:12:29.645Z,102672.33
2024-05-09T02:15:58.710Z,102672.61
2024-05-09T02:19:27.975Z,102665.95
2024-05-09T02:22:56.808Z,102662.98
2024-05-09T02:26:25.946Z,102663.48
2024-05-09T02:29:55.097Z,102659.11
2024-05-09T02:33:24.043Z,102658.58
2024-05-09T02:36:45.924Z,102661.70
2024-05-09T02:40:14.854Z,102658.53
2024-05-09T02:43:40.256Z,102661.77
2024-05-09T02:47:09.455Z,102655.92
2024-05-09T02:50:39.111Z,102661.80
2024-05-09T02:54:08.994Z,102660.65
2024-05-09T02:57:28.272Z,102660.19
2024-05-09T03:00:57.402Z,102659.91
2024-05-09T03:04:27.419Z,102661.44
2024-05-09T03:07:56.234Z,102657.42
2024-05-09T03:11:25.503Z,102653.23
2024-05-09T03:14:57.161Z,102650.87
2024-05-09T03:18:16.546Z,102650.96
2024-05-09T03:21:45.859Z,102647.85
2024-05-09T03:25:05.333Z,102649.33
2024-05-09T03:28:34.314Z,102646.34
2024-05-09T03:32:04.559Z,102643.88
2024-05-09T03:35:33.616Z,102646.80
2024-05-09T03:39:02.386Z,102647.91
2024-05-09T03:42:31.373Z,102649.38
2024-05-09T03:46:00.544Z,102650.96
2024-05-09T03:49:31.085Z,102653.79
2024-05-09T03:52:52.739Z,102652.56
2024-05-09T03:56:05.923Z,102655.67
2024-05-09T03:59:34.545Z,102659.15
2024-05-09T04:02:53.376Z,102662.06
2024-05-09T04:06:22.673Z,102665.02
2024-05-09T04:09:42.032Z,102661.94
2024-05-09T04:13:01.531Z,102665.39
2024-05-09T04:16:31.142Z,102665.34
2024-05-09T04:20:00.327Z,102664.65
2024-05-09T04:23:29.175Z,102671.38
2024-05-09T04:26:48.330Z,102672.02
2024-05-09T04:30:25.557Z,102672.58
2024-05-09T04:33:47.991Z,102671.93
2024-05-09T04:37:16.455Z,102671.10
2024-05-09T04:40:45.917Z,102670.14
2024-05-09T04:44:18.288Z,102667.61
2024-05-09T04:47:47.909Z,102671.45
2024-05-09T04:51:06.838Z,102673.06
2024-05-09T04:54:36.825Z,102672.25
2024-05-09T04:58:00.399Z,102677.00
2024-05-09T05:01:29.446Z,102674.70
2024-05-09T05:04:59.064Z,102677.94
2024-05-09T05:08:27.390Z,102676.80
2024-05-09T05:11:57.500Z,102680.20
2024-05-09T05:15:26.492Z,102681.39
2024-05-09T05:18:59.357Z,102680.02
2024-05-09T05:22:21.540Z,102676.30
2024-05-09T05:25:50.519Z,102681.15
2024-05-09T05:29:20.990Z,102679.98
2024-05-09T05:32:50.321Z,102679.04
2024-05-09T05:36:19.705Z,102677.43
2024-05-09T05:39:48.732Z,102676.95
2024-05-09T05:43:18.043Z,102676.15
2024-05-09T05:46:46.803Z,102678.67
2024-05-09T05:50:24.248Z,102680.39
2024-05-09T05:54:00.504Z,102683.14
2024-05-09T05:57:30.413Z,102677.52
2024-05-09T06:00:59.747Z,102674.08
2024-05-09T06:04:28.711Z,102671.93
2024-05-09T06:07:56.177Z,102670.90
2024-05-09T06:11:25.238Z,102674.96
2024-05-09T06:14:54.301Z,102674.88
2024-05-09T06:18:24.883Z,102677.71
2024-05-09T06:21:52.610Z,102673.71
2024-05-09T06:25:21.339Z,102670.92
2024-05-09T06:28:50.286Z,102670.95
2024-05-09T06:32:25.667Z,102663.90
2024-05-09T06:35:55.044Z,102665.95
2024-05-09T06:39:23.989Z,102666.59
2024-05-09T06:42:53.008Z,102668.16
2024-05-09T06:46:21.980Z,102671.14
2024-05-09T06:49:50.891Z,102675.77
2024-05-09T06:53:18.972Z,102679.98
2024-05-09T06:56:40.108Z,102678.54
2024-05-09T07:00:12.877Z,102681.58
2024-05-09T07:03:50.542Z,102680.28
2024-05-09T07:07:10.995Z,102679.49
2024-05-09T07:10:39.812Z,102676.29
2024-05-09T07:14:11.703Z,102673.41
2024-05-09T07:17:38.702Z,102672.63
2024-05-09T07:20:34.720Z,102670.81
2024-05-09T07:24:04.071Z,102672.55
2024-05-09T07:27:33.788Z,102673.57
2024-05-09T07:31:02.781Z,102674.23
2024-05-09T07:34:32.154Z,102676.49
2024-05-09T07:37:53.937Z,102674.92
2024-05-09T07:41:22.846Z,102676.52
2024-05-09T07:44:51.617Z,102669.03
2024-05-09T07:53:21.074Z,102665.02
2024-05-09T07:55:40.343Z,102666.84
2024-05-09T07:58:52.865Z,102666.20
2024-05-09T08:02:20.874Z,102673.05
2024-05-09T08:05:31.344Z,102677.86
2024-05-09T08:09:05.162Z,102676.95
2024-05-09T08:12:36.984Z,102677.34
2024-05-09T08:16:00.625Z,102678.42
2024-05-09T08:19:19.836Z,102678.67
2024-05-09T08:22:38.052Z,102682.43
2024-05-09T08:25:56.043Z,102674.28
2024-05-09T08:29:24.754Z,102672.48
2024-05-09T08:32:46.569Z,102672.23
2024-05-09T08:36:04.938Z,102674.96
2024-05-09T08:39:33.888Z,102671.61
2024-05-09T08:43:01.682Z,102669.68
2024-05-09T08:46:24.193Z,102665.11
2024-05-09T08:49:53.410Z,102664.42
2024-05-09T08:53:15.222Z,102666.29
2024-05-09T08:56:36.889Z,102671.63
2024-05-09T08:59:51.436Z,102671.21
2024-05-09T09:03:20.443Z,102669.41
2024-05-09T09:06:47.691Z,102674.25
2024-05-09T09:10:21.219Z,102676.11
2024-05-09T09:13:50.276Z,102676.70
2024-05-09T09:17:03.718Z,102672.17
2024-05-09T09:20:33.962Z,102674.60
2024-05-09T09:24:07.487Z,102673.56
2024-05-09T09:27:37.360Z,102663.17
2024-05-09T09:30:59.446Z,102665.95
2024-05-09T09:34:29.495Z,102662.83
2024-05-09T09:37:58.087Z,102660.83
2024-05-09T09:41:20.577Z,102660.41
2024-05-09T09:44:57.790Z,102655.85
2024-05-09T09:48:29.945Z,102654.68
2024-05-09T09:51:48.907Z,102657.16
2024-05-09T09:55:09.846Z,102659.30
2024-05-09T09:58:36.823Z,102661.61
2024-05-09T10:02:05.665Z,102662.19
2024-05-09T10:05:17.003Z,102665.14
2024-05-09T10:08:42.909Z,102662.92
2024-05-09T10:11:27.218Z,102659.20
2024-05-09T10:14:56.241Z,102656.77
2024-05-09T10:18:28.594Z,102656.07
2024-05-09T10:21:59.412Z,102652.07
2024-05-09T10:25:26.657Z,102651.40
2024-05-09T10:28:58.683Z,102656.30
2024-05-09T10:32:29.086Z,102657.21
2024-05-09T10:35:53.222Z,102661.91
2024-05-09T10:39:18.804Z,102664.16
2024-05-09T10:42:42.855Z,102667.22
2024-05-09T10:46:02.042Z,102671.48
2024-05-09T10:49:30.803Z,102671.05
2024-05-09T10:52:40.217Z,102671.54
2024-05-09T10:56:09.644Z,102672.07
2024-05-09T10:59:38.543Z,102673.67
2024-05-09T11:03:07.848Z,102674.13
2024-05-09T11:06:36.763Z,102673.15
2024-05-09T11:10:09.754Z,102674.81
2024-05-09T11:13:40.869Z,102667.60
2024-05-09T11:17:19.201Z,102670.32
2024-05-09T11:20:40.163Z,102663.41
2024-05-09T11:24:01.483Z,102667.87
2024-05-09T11:27:30.168Z,102667.61
2024-05-09T11:30:59.299Z,102675.75
2024-05-09T11:34:28.125Z,102678.36
2024-05-09T11:37:49.967Z,102676.90
2024-05-09T11:41:19.242Z,102679.15
2024-05-09T11:44:42.223Z,102679.77
2024-05-09T11:48:10.463Z,102681.92
2024-05-09T11:51:21.860Z,102681.21
2024-05-09T11:54:50.472Z,102680.88
2024-05-09T11:58:12.190Z,102683.66
2024-05-09T12:01:41.642Z,102690.08
2024-05-09T12:05:10.563Z,102690.95
2024-05-09T12:08:39.616Z,102690.99
2024-05-09T12:12:08.597Z,102691.23
2024-05-09T12:15:38.773Z,102688.88
2024-05-09T12:18:52.317Z,102685.77
2024-05-09T12:22:21.513Z,102687.07
2024-05-09T12:25:50.367Z,102686.00
2024-05-09T12:29:19.242Z,102682.23
2024-05-09T12:32:37.971Z,102679.34
2024-05-09T12:36:06.841Z,102672.80
2024-05-09T12:39:35.896Z,102666.09
2024-05-09T12:42:45.150Z,102666.41
2024-05-09T12:46:14.070Z,102667.43
2024-05-09T12:49:44.386Z,102667.80
2024-05-09T12:53:13.650Z,102673.52
2024-05-09T12:56:42.859Z,102677.73
2024-05-09T13:00:20.664Z,102678.84
2024-05-09T13:03:56.981Z,102681.50
2024-05-09T13:07:26.073Z,102680.86
2024-05-09T13:10:54.793Z,102685.77
2024-05-09T13:14:23.654Z,102685.56
2024-05-09T13:17:52.448Z,102680.38
2024-05-09T13:21:21.459Z,102683.52
2024-05-09T13:24:50.021Z,102682.48
2024-05-09T13:28:18.823Z,102690.90
2024-05-09T13:31:39.319Z,102692.11
2024-05-09T13:35:08.454Z,102694.38
2024-05-09T13:38:36.228Z,102701.44
2024-05-09T13:41:59.006Z,102704.10
2024-05-09T13:45:27.587Z,102700.05
2024-05-09T13:48:56.557Z,102705.75
2024-05-09T13:52:24.235Z,102708.87
2024-05-09T13:55:53.031Z,102704.02
2024-05-09T13:59:22.731Z,102704.12
2024-05-09T14:02:51.877Z,102696.55
2024-05-09T14:06:20.445Z,102700.20
2024-05-09T14:09:48.820Z,102708.39
2024-05-09T14:13:17.579Z,102714.45
2024-05-09T14:16:48.124Z,102720.86
2024-05-09T14:20:27.234Z,102720.60
2024-05-09T14:24:00.930Z,102728.00
2024-05-09T14:27:30.023Z,102725.23
2024-05-09T14:30:58.459Z,102727.75
2024-05-09T14:34:18.104Z,102729.09
2024-05-09T14:37:47.282Z,102726.56
2024-05-09T14:41:15.214Z,102731.85
2024-05-09T14:44:44.266Z,102735.71
2024-05-09T14:48:13.363Z,102735.98
2024-05-09T14:51:41.351Z,102734.21
2024-05-09T14:54:59.658Z,102729.57
2024-05-09T14:58:29.956Z,102730.56
2024-05-09T15:01:57.455Z,102729.14
2024-05-09T15:05:27.381Z,102726.89
2024-05-09T15:08:48.830Z,102729.98
2024-05-09T15:12:17.720Z,102730.09
2024-05-09T15:15:47.200Z,102726.69
2024-05-09T15:19:16.388Z,102731.48
2024-05-09T15:22:45.413Z,102733.19
2024-05-09T15:26:17.184Z,102732.93
2024-05-09T15:29:46.401Z,102734.48
2024-05-09T15:33:15.228Z,102740.05
2024-05-09T15:36:45.528Z,102732.65
2024-05-09T15:40:18.871Z,102730.10
2024-05-09T15:43:55.718Z,102725.60
2024-05-09T15:47:17.190Z,102722.86
2024-05-09T15:50:46.116Z,102718.48
2024-05-09T15:54:14.949Z,102712.78
2024-05-09T15:57:43.970Z,102711.51
2024-05-09T16:01:06.171Z,102706.23
2024-05-09T16:04:35.317Z,102703.84
2024-05-09T16:07:57.042Z,102696.97
2024-05-09T16:11:25.838Z,102695.27
2024-05-09T16:14:46.269Z,102695.66
2024-05-09T16:18:10.155Z,102698.33
2024-05-09T16:21:28.987Z,102698.89
2024-05-09T16:24:57.773Z,102700.30
2024-05-09T16:28:27.131Z,102699.44
2024-05-09T16:31:56.031Z,102696.83
2024-05-09T16:35:16.775Z,102699.27
2024-05-09T16:38:35.917Z,102697.95
2024-05-09T16:41:57.115Z,102688.41
2024-05-09T16:45:26.192Z,102684.59
2024-05-09T16:48:48.312Z,102682.65
2024-05-09T16:52:17.198Z,102683.02
2024-05-09T16:55:46.824Z,102680.79
2024-05-09T16:59:14.832Z,102675.11
2024-05-09T17:02:43.483Z,102669.77
2024-05-09T17:06:12.145Z,102670.00
2024-05-09T17:09:23.652Z,102667.40
2024-05-09T17:12:52.466Z,102663.84
2024-05-09T17:16:21.645Z,102663.22
2024-05-09T17:19:43.407Z,102663.41
2024-05-09T17:23:12.126Z,102663.15
2024-05-09T17:26:21.171Z,102654.73
2024-05-09T17:29:43.703Z,102649.45
2024-05-09T17:33:13.357Z,102648.30
2024-05-09T17:36:43.048Z,102650.70
2024-05-09T17:40:16.755Z,102648.39
2024-05-09T17:43:46.125Z,102639.36
2024-05-09T17:47:15.198Z,102639.37
2024-05-09T17:50:43.982Z,102637.83
2024-05-09T17:54:12.855Z,102634.89
2024-05-09T17:57:42.154Z,102632.33
2024-05-09T18:01:11.349Z,102629.95
2024-05-09T18:04:40.800Z,102628.02
2024-05-09T18:08:11.006Z,102624.95
2024-05-09T18:11:39.593Z,102623.86
2024-05-09T18:15:08.379Z,102616.91
2024-05-09T18:18:38.010Z,102611.00
2024-05-09T18:22:06.855Z,102606.64
2024-05-09T18:25:35.956Z,102599.70
2024-05-09T18:28:55.324Z,102595.92
2024-05-09T18:32:24.562Z,102588.32
2024-05-09T18:35:53.675Z,102586.84
2024-05-09T18:39:22.822Z,102578.44
2024-05-09T18:42:51.994Z,102575.98
2024-05-09T18:46:14.261Z,102569.08
2024-05-09T18:49:43.741Z,102562.11
2024-05-09T18:53:13.762Z,102556.20
2024-05-09T18:56:25.121Z,102561.94
2024-05-09T18:59:54.092Z,102558.37
2024-05-09T19:03:23.530Z,102558.77
2024-05-09T19:06:52.245Z,102559.12
2024-05-09T19:10:22.974Z,102550.17
2024-05-09T19:13:55.662Z,102545.54
2024-05-09T19:17:07.679Z,102539.77
2024-05-09T19:20:34.447Z,102536.93
2024-05-09T19:23:55.542Z,102533.59
2024-05-09T19:27:24.513Z,102524.65
2024-05-09T19:30:46.407Z,102520.11
2024-05-09T19:34:14.323Z,102518.55
2024-05-09T19:37:37.464Z,102511.33
2024-05-09T19:41:06.369Z,102508.45
2024-05-09T19:44:34.848Z,102506.12
2024-05-09T19:48:03.019Z,102497.49
2024-05-09T19:51:24.481Z,102492.72
2024-05-09T19:54:46.171Z,102490.37
2024-05-09T19:58:14.928Z,102482.18
2024-05-09T20:01:23.614Z,102484.30
2024-05-09T20:04:46.619Z,102480.70
2024-05-09T20:08:15.617Z,102478.84
2024-05-09T20:11:35.116Z,102478.62
2024-05-09T20:14:53.740Z,102481.02
2024-05-09T20:18:16.560Z,102472.50
2024-05-09T20:21:45.537Z,102458.52
2024-05-09T20:25:14.151Z,102445.30
2024-05-09T20:28:42.808Z,102444.89
2024-05-09T20:32:11.395Z,102438.00
2024-05-09T20:35:22.730Z,102437.23
2024-05-09T20:38:36.547Z,102435.05
2024-05-09T20:41:55.719Z,102433.18
2024-05-09T20:45:24.384Z,102427.65
2024-05-09T20:48:42.972Z,102425.92
2024-05-09T20:52:11.575Z,102424.08
2024-05-09T20:55:40.427Z,102419.71
2024-05-09T20:59:09.907Z,102416.77
2024-05-09T21:02:38.919Z,102416.63
2024-05-09T21:06:07.546Z,102412.66
2024-05-09T21:09:36.235Z,102408.14
2024-05-09T21:12:58.505Z,102408.35
2024-05-09T21:16:27.607Z,102404.48
2024-05-09T21:19:56.399Z,102402.56
2024-05-09T21:23:25.267Z,102400.27
2024-05-09T21:26:54.355Z,102392.01
2024-05-09T21:30:32.495Z,102384.45
2024-05-09T21:34:12.398Z,102382.16
2024-05-09T21:37:41.633Z,102381.29
2024-05-09T21:41:10.773Z,102379.17
2024-05-09T21:44:39.663Z,102376.55
2024-05-09T21:48:08.106Z,102375.85
2024-05-09T21:51:37.005Z,102365.49
2024-05-09T21:55:06.190Z,102362.33
2024-05-09T21:58:25.885Z,102357.94
2024-05-09T22:01:54.972Z,102354.42
2024-05-09T22:05:24.031Z,102349.34
2024-05-09T22:08:53.126Z,102345.31
2024-05-09T22:12:21.900Z,102340.90
2024-05-09T22:15:50.654Z,102338.45
2024-05-09T22:19:20.400Z,102335.11
2024-05-09T22:22:49.213Z,102327.21
2024-05-09T22:26:17.972Z,102320.90
2024-05-09T22:29:46.864Z,102316.33
2024-05-09T22:33:16.053Z,102309.84
2024-05-09T22:36:37.838Z,102306.69
2024-05-09T22:40:00.952Z,102307.55
2024-05-09T22:43:30.821Z,102298.98
2024-05-09T22:47:00.386Z,102299.85
2024-05-09T22:50:33.190Z,102294.77
2024-05-09T22:54:09.376Z,102290.91
2024-05-09T22:57:30.794Z,102281.95
2024-05-09T23:00:59.520Z,102276.17
2024-05-09T23:04:28.164Z,102270.89
2024-05-09T23:07:56.978Z,102271.59
2024-05-09T23:11:16.354Z,102268.27
2024-05-09T23:14:33.979Z,102262.98
2024-05-09T23:18:03.000Z,102258.23
2024-05-09T23:21:31.862Z,102252.27
2024-05-09T23:25:00.723Z,102249.09
2024-05-09T23:28:29.810Z,102246.63
2024-05-09T23:31:58.407Z,102243.09
2024-05-09T23:35:27.397Z,102240.46
2024-05-09T23:38:57.835Z,102239.22
2024-05-09T23:42:26.734Z,102231.84
2024-05-09T23:45:55.775Z,102228.50
2024-05-09T23:49:03.721Z,102223.40
2024-05-09T23:52:25.869Z,102221.48
2024-05-09T23:55:54.654Z,102217.27
2024-05-09T23:59:23.691Z,102215.86
